Ahmedabad, India
Current Conditions -  °F | °C
As of 10:40 PM on Friday 28 Nov 2014 (Local Time) from VAAH Reporting Station
Haze Haze  
Wind Chill: 70°   Ceiling: Unl
Heat Index: 70°   Visibility: 2.5mi
Dew Point: 61°   Wind: 0mph
Humidity: 73%   Direction: NA
Pressure: 29.91"   Gusts: NA
Location:  23.04°N, 72.57°E
Report Text: VAAH 281740Z 00000KT 4000 HZ NSC 21/16 Q1013 NOSIG
Loading
Personal Weather Stations






























Interactive Weather Map New forecast layout! Learn more

10-Day Weather Forecast

Advertisements
Track Severe Weather on mobile